Time,TemperatureF,DewpointF,PressureIn,WindDirection,WindDirectionDegrees,WindSpeedMPH,WindSpeedGustMPH,Humidity,HourlyPrecipIn,Conditions,Clouds,dailyrainin,SoftwareType,DateUTC
2013-01-20 00:03:00,67.3,64.2,29.74,SE,135,1.1,1.1,90,0.00,,---,0.00,VWS V14.01,2013-01-19 13:03:00,
2013-01-20 00:08:00,67.3,64.2,29.74,SSE,158,0.0,0.0,90,0.00,,---,0.00,VWS V14.01,2013-01-19 13:08:00,
2013-01-20 00:13:00,67.3,64.2,29.74,SSE,158,0.0,3.1,90,0.00,,---,0.00,VWS V14.01,2013-01-19 13:13:00,
2013-01-20 00:18:00,67.5,64.4,29.74,ESE,112,1.3,1.3,90,0.00,,---,0.00,VWS V14.01,2013-01-19 13:18:00,
2013-01-20 00:23:00,67.3,64.2,29.74,South,180,2.0,2.2,90,0.00,,---,0.00,VWS V14.01,2013-01-19 13:23:00,
2013-01-20 00:28:00,67.5,64.4,29.74,South,180,2.0,2.0,90,0.00,,---,0.00,VWS V14.01,2013-01-19 13:28:00,
2013-01-20 00:33:00,67.5,64.1,29.74,SSE,158,0.0,0.0,89,0.00,,---,0.00,VWS V14.01,2013-01-19 13:33:00,
2013-01-20 00:38:00,67.5,64.1,29.74,SSE,158,2.7,2.7,89,0.00,,---,0.00,VWS V14.01,2013-01-19 13:38:00,
2013-01-20 00:43:00,67.5,64.4,29.74,SSE,158,2.7,2.7,90,0.00,,---,0.00,VWS V14.01,2013-01-19 13:43:00,
2013-01-20 00:48:00,67.5,64.4,29.74,SSE,158,2.7,2.7,90,0.00,,---,0.00,VWS V14.01,2013-01-19 13:48:00,
2013-01-20 00:53:00,67.5,64.1,29.74,SSE,158,2.0,2.0,89,0.00,,---,0.00,VWS V14.01,2013-01-19 13:53:00,
2013-01-20 00:58:00,67.5,64.1,29.71,SE,135,2.0,2.0,89,0.00,,---,0.00,VWS V14.01,2013-01-19 13:58:00,
2013-01-20 01:03:00,67.5,64.1,29.71,SE,135,2.0,2.0,89,0.00,,---,0.00,VWS V14.01,2013-01-19 14:03:00,
2013-01-20 01:08:00,67.6,64.3,29.71,South,180,0.0,0.0,89,0.00,,---,0.00,VWS V14.01,2013-01-19 14:08:00,
2013-01-20 01:13:00,67.6,64.3,29.71,WSW,248,3.1,3.1,89,0.00,,---,0.00,VWS V14.01,2013-01-19 14:13:00,
2013-01-20 01:18:00,67.6,64.3,29.71,SSE,158,0.9,0.9,89,0.00,,---,0.00,VWS V14.01,2013-01-19 14:18:00,
2013-01-20 01:23:00,67.6,64.3,29.71,South,180,2.0,3.1,89,0.00,,---,0.00,VWS V14.01,2013-01-19 14:23:00,
2013-01-20 01:28:00,67.6,64.6,29.71,SW,225,2.5,2.5,90,0.00,,---,0.00,VWS V14.01,2013-01-19 14:28:00,
2013-01-20 01:33:00,67.6,64.6,29.71,SE,135,3.8,3.8,90,0.00,,---,0.00,VWS V14.01,2013-01-19 14:33:00,
2013-01-20 01:38:00,67.5,64.4,29.71,SSE,158,4.9,4.9,90,0.00,,---,0.00,VWS V14.01,2013-01-19 14:38:00,
2013-01-20 01:43:00,67.5,64.8,29.71,ESE,112,3.1,3.1,91,0.00,,---,0.00,VWS V14.01,2013-01-19 14:43:00,
2013-01-20 01:48:00,67.5,64.8,29.71,ESE,112,0.9,0.9,91,0.00,,---,0.00,VWS V14.01,2013-01-19 14:48:00,
2013-01-20 01:53:00,67.5,64.4,29.71,SSE,158,1.3,4.3,90,0.00,,---,0.00,VWS V14.01,2013-01-19 14:53:00,
2013-01-20 01:58:00,67.5,64.4,29.71,SE,135,2.7,2.7,90,0.00,,---,0.00,VWS V14.01,2013-01-19 14:58:00,
2013-01-20 02:03:00,67.5,64.4,29.71,SSE,158,2.9,2.9,90,0.00,,---,0.00,VWS V14.01,2013-01-19 15:03:00,
2013-01-20 02:08:00,67.5,64.4,29.71,South,180,2.5,2.5,90,0.00,,---,0.00,VWS V14.01,2013-01-19 15:08:00,
2013-01-20 02:13:00,67.5,64.4,29.71,SSE,158,3.6,3.6,90,0.00,,---,0.00,VWS V14.01,2013-01-19 15:13:00,
2013-01-20 02:18:00,67.5,64.8,29.71,South,180,3.4,3.4,91,0.00,,---,0.00,VWS V14.01,2013-01-19 15:18:00,
2013-01-20 02:23:00,67.5,64.4,29.71,SSE,158,2.2,2.2,90,0.00,,---,0.00,VWS V14.01,2013-01-19 15:23:00,
2013-01-20 02:28:00,67.5,64.4,29.71,SE,135,1.6,3.8,90,0.00,,---,0.00,VWS V14.01,2013-01-19 15:28:00,
2013-01-20 02:33:00,67.5,64.4,29.71,SE,135,1.6,1.6,90,0.00,,---,0.00,VWS V14.01,2013-01-19 15:33:00,
2013-01-20 02:38:00,67.5,64.4,29.71,SSE,158,2.7,2.7,90,0.00,,---,0.00,VWS V14.01,2013-01-19 15:38:00,
2013-01-20 02:43:00,67.5,64.4,29.71,SE,135,2.9,2.9,90,0.00,,---,0.00,VWS V14.01,2013-01-19 15:43:00,
2013-01-20 02:48:00,67.6,64.6,29.71,ESE,112,2.0,2.0,90,0.00,,---,0.00,VWS V14.01,2013-01-19 15:48:00,
2013-01-20 02:53:00,67.6,64.6,29.71,South,180,0.0,0.0,90,0.00,,---,0.00,VWS V14.01,2013-01-19 15:53:00,
2013-01-20 02:58:00,67.6,64.6,29.68,SSW,202,5.4,5.4,90,0.00,,---,0.00,VWS V14.01,2013-01-19 15:58:00,
2013-01-20 03:03:00,67.5,64.4,29.68,East,90,1.6,5.4,90,0.00,,---,0.00,VWS V14.01,2013-01-19 16:03:00,
2013-01-20 03:08:00,67.5,64.4,29.68,South,180,2.7,2.7,90,0.00,,---,0.00,VWS V14.01,2013-01-19 16:08:00,
2013-01-20 03:13:00,67.5,64.8,29.68,SSE,158,0.0,0.0,91,0.00,,---,0.00,VWS V14.01,2013-01-19 16:13:00,
2013-01-20 03:18:00,67.5,64.8,29.68,ESE,112,1.3,1.3,91,0.00,,---,0.00,VWS V14.01,2013-01-19 16:18:00,
2013-01-20 03:23:00,67.3,64.6,29.68,SSE,158,0.0,1.6,91,0.00,,---,0.00,VWS V14.01,2013-01-19 16:23:00,
2013-01-20 03:28:00,67.3,64.6,29.68,SE,135,2.7,2.7,91,0.00,,---,0.00,VWS V14.01,2013-01-19 16:28:00,
2013-01-20 03:33:00,67.3,64.6,29.68,SE,135,2.0,2.0,91,0.00,,---,0.00,VWS V14.01,2013-01-19 16:33:00,
2013-01-20 03:38:00,67.5,64.8,29.68,SE,135,2.2,2.2,91,0.00,,---,0.00,VWS V14.01,2013-01-19 16:38:00,
2013-01-20 03:43:00,67.5,64.8,29.68,SE,135,3.1,3.1,91,0.00,,---,0.00,VWS V14.01,2013-01-19 16:43:00,
2013-01-20 03:48:00,67.5,64.4,29.68,SSE,158,2.7,2.7,90,0.00,,---,0.00,VWS V14.01,2013-01-19 16:48:00,
2013-01-20 03:53:00,67.5,64.4,29.68,SW,225,3.4,4.3,90,0.00,,---,0.00,VWS V14.01,2013-01-19 16:53:00,
2013-01-20 03:58:00,67.5,64.8,29.71,SE,135,2.0,2.0,91,0.00,,---,0.00,VWS V14.01,2013-01-19 16:58:00,
2013-01-20 04:03:00,67.5,64.8,29.71,SE,135,1.1,2.7,91,0.00,,---,0.00,VWS V14.01,2013-01-19 17:03:00,
2013-01-20 04:08:00,67.5,65.1,29.71,SSE,158,1.6,1.6,92,0.00,,---,0.00,VWS V14.01,2013-01-19 17:08:00,
2013-01-20 04:13:00,67.5,65.1,29.68,SSE,158,2.2,2.2,92,0.00,,---,0.00,VWS V14.01,2013-01-19 17:13:00,
2013-01-20 04:18:00,67.5,64.8,29.68,SSE,158,1.3,2.5,91,0.00,,---,0.00,VWS V14.01,2013-01-19 17:18:00,
2013-01-20 04:23:00,67.3,64.6,29.68,ESE,112,2.9,2.9,91,0.00,,---,0.00,VWS V14.01,2013-01-19 17:23:00,
2013-01-20 04:28:00,67.5,64.8,29.68,SSE,158,2.5,2.5,91,0.00,,---,0.00,VWS V14.01,2013-01-19 17:28:00,
2013-01-20 04:33:00,67.5,65.1,29.68,SE,135,2.5,2.5,92,0.00,,---,0.00,VWS V14.01,2013-01-19 17:33:00,
2013-01-20 04:39:00,67.5,64.8,29.68,SSE,158,1.6,1.6,91,0.00,,---,0.00,VWS V14.01,2013-01-19 17:39:00,
2013-01-20 04:44:00,67.5,65.1,29.71,SE,135,0.9,0.9,92,0.00,,---,0.00,VWS V14.01,2013-01-19 17:44:00,
2013-01-20 04:49:00,67.5,65.1,29.71,SE,135,1.3,1.3,92,0.00,,---,0.00,VWS V14.01,2013-01-19 17:49:00,
2013-01-20 04:54:00,67.5,64.8,29.71,SE,135,3.8,3.8,91,0.00,,---,0.00,VWS V14.01,2013-01-19 17:54:00,
2013-01-20 04:59:00,67.5,64.8,29.71,SSW,202,3.1,3.1,91,0.00,,---,0.00,VWS V14.01,2013-01-19 17:59:00,
2013-01-20 05:04:00,67.5,65.1,29.71,SW,225,0.0,1.3,92,0.00,,---,0.00,VWS V14.01,2013-01-19 18:04:00,
2013-01-20 05:09:00,67.6,64.9,29.71,South,180,1.6,1.6,91,0.00,,---,0.00,VWS V14.01,2013-01-19 18:09:00,
2013-01-20 05:14:00,67.6,64.9,29.71,SSW,202,1.3,2.5,91,0.00,,---,0.00,VWS V14.01,2013-01-19 18:14:00,
2013-01-20 05:19:00,67.6,64.9,29.71,SSW,202,1.3,2.7,91,0.00,,---,0.00,VWS V14.01,2013-01-19 18:19:00,
2013-01-20 05:24:00,67.6,64.9,29.71,ESE,112,2.9,2.9,91,0.00,,---,0.00,VWS V14.01,2013-01-19 18:24:00,
2013-01-20 05:29:00,67.6,64.9,29.71,South,180,2.9,2.9,91,0.00,,---,0.00,VWS V14.01,2013-01-19 18:29:00,
2013-01-20 05:34:00,67.6,64.9,29.71,SE,135,2.2,2.2,91,0.00,,---,0.00,VWS V14.01,2013-01-19 18:34:00,
2013-01-20 05:39:00,67.6,64.9,29.71,SW,225,2.7,2.7,91,0.00,,---,0.00,VWS V14.01,2013-01-19 18:39:00,
2013-01-20 05:45:00,67.6,64.9,29.71,South,180,1.6,1.6,91,0.00,,---,0.00,VWS V14.01,2013-01-19 18:45:00,
2013-01-20 05:50:00,67.6,65.2,29.71,SE,135,1.3,1.3,92,0.00,,---,0.00,VWS V14.01,2013-01-19 18:50:00,
2013-01-20 05:55:00,67.6,65.2,29.71,SE,135,2.9,2.9,92,0.00,,---,0.00,VWS V14.01,2013-01-19 18:55:00,
2013-01-20 06:00:00,67.6,65.2,29.71,SE,135,0.9,0.9,92,0.04,,---,0.04,VWS V14.01,2013-01-19 19:00:00,
2013-01-20 06:05:00,67.6,65.2,29.71,SSE,158,1.1,3.1,92,0.04,,---,0.04,VWS V14.01,2013-01-19 19:05:00,
2013-01-20 06:10:00,67.6,65.2,29.71,SSW,202,2.5,2.5,92,0.04,,---,0.04,VWS V14.01,2013-01-19 19:10:00,
2013-01-20 06:15:00,67.6,65.2,29.71,SSE,158,2.5,2.5,92,0.04,,---,0.04,VWS V14.01,2013-01-19 19:15:00,
2013-01-20 06:20:00,67.6,65.2,29.71,ESE,112,3.1,6.0,92,0.04,,---,0.04,VWS V14.01,2013-01-19 19:20:00,
2013-01-20 06:25:00,67.6,65.2,29.71,SE,135,2.0,2.0,92,0.04,,---,0.04,VWS V14.01,2013-01-19 19:25:00,
2013-01-20 06:30:00,67.6,65.2,29.74,SE,135,2.9,2.9,92,0.04,,---,0.04,VWS V14.01,2013-01-19 19:30:00,
2013-01-20 06:35:00,67.6,65.2,29.74,SE,135,0.0,2.5,92,0.04,,---,0.04,VWS V14.01,2013-01-19 19:35:00,
2013-01-20 06:40:00,67.6,65.2,29.74,South,180,3.1,3.1,92,0.08,,---,0.08,VWS V14.01,2013-01-19 19:40:00,
2013-01-20 06:45:00,67.6,65.6,29.74,SSE,158,2.0,2.0,93,0.08,,---,0.08,VWS V14.01,2013-01-19 19:45:00,
2013-01-20 06:50:00,67.6,65.6,29.74,SE,135,2.2,2.2,93,0.08,,---,0.08,VWS V14.01,2013-01-19 19:50:00,
2013-01-20 06:55:00,67.6,65.6,29.74,SE,135,1.3,2.7,93,0.08,,---,0.08,VWS V14.01,2013-01-19 19:55:00,
2013-01-20 07:00:00,67.6,65.6,29.74,SSE,158,2.7,2.7,93,0.08,,---,0.12,VWS V14.01,2013-01-19 20:00:00,
2013-01-20 07:05:00,67.6,65.9,29.74,East,90,0.0,3.8,94,0.08,,---,0.12,VWS V14.01,2013-01-19 20:05:00,
2013-01-20 07:11:00,67.5,66.0,29.74,East,90,2.9,2.9,95,0.13,,---,0.17,VWS V14.01,2013-01-19 20:11:00,
2013-01-20 07:16:00,67.5,66.0,29.74,ESE,112,1.6,1.6,95,0.13,,---,0.17,VWS V14.01,2013-01-19 20:16:00,
2013-01-20 07:21:00,67.5,66.0,29.74,ESE,112,1.6,1.6,95,0.13,,---,0.17,VWS V14.01,2013-01-19 20:21:00,
2013-01-20 07:26:00,67.5,66.0,29.74,ESE,112,1.6,1.6,95,0.13,,---,0.17,VWS V14.01,2013-01-19 20:26:00,
2013-01-20 07:31:00,67.6,66.2,29.74,ESE,112,1.6,1.6,95,0.13,,---,0.17,VWS V14.01,2013-01-19 20:31:00,
2013-01-20 07:36:00,67.6,66.5,29.74,ESE,112,1.6,1.6,96,0.13,,---,0.17,VWS V14.01,2013-01-19 20:36:00,
2013-01-20 07:41:00,67.6,66.2,29.74,ESE,112,1.6,1.6,95,0.09,,---,0.17,VWS V14.01,2013-01-19 20:41:00,
2013-01-20 07:47:00,67.6,66.2,29.76,ESE,112,1.6,1.6,95,0.09,,---,0.17,VWS V14.01,2013-01-19 20:47:00,
2013-01-20 07:52:00,67.6,66.2,29.76,ESE,112,1.6,1.6,95,0.09,,---,0.17,VWS V14.01,2013-01-19 20:52:00,
2013-01-20 07:57:00,67.6,66.5,29.74,ESE,112,1.6,1.6,96,0.09,,---,0.17,VWS V14.01,2013-01-19 20:57:00,
2013-01-20 08:02:00,67.6,66.5,29.74,ESE,112,1.6,1.6,96,0.05,,---,0.17,VWS V14.01,2013-01-19 21:02:00,
2013-01-20 08:08:00,67.6,66.2,29.74,ESE,112,1.6,1.6,95,0.09,,---,0.21,VWS V14.01,2013-01-19 21:08:00,
2013-01-20 08:13:00,67.8,66.3,29.76,ESE,112,1.6,1.6,95,0.04,,---,0.21,VWS V14.01,2013-01-19 21:13:00,
2013-01-20 08:18:00,67.8,66.3,29.76,ESE,112,1.6,1.6,95,0.04,,---,0.21,VWS V14.01,2013-01-19 21:18:00,
2013-01-20 08:23:00,67.8,66.3,29.76,ESE,112,1.6,1.6,95,0.04,,---,0.21,VWS V14.01,2013-01-19 21:23:00,
2013-01-20 08:28:00,67.8,66.3,29.76,ESE,112,1.6,1.6,95,0.04,,---,0.21,VWS V14.01,2013-01-19 21:28:00,
2013-01-20 08:33:00,67.6,66.2,29.76,SE,135,0.0,0.0,95,0.08,,---,0.25,VWS V14.01,2013-01-19 21:33:00,
2013-01-20 08:38:00,67.6,66.2,29.76,East,90,0.0,0.0,95,0.08,,---,0.25,VWS V14.01,2013-01-19 21:38:00,
2013-01-20 08:44:00,67.8,66.3,29.76,ENE,68,0.9,0.9,95,0.08,,---,0.25,VWS V14.01,2013-01-19 21:44:00,
2013-01-20 08:49:00,67.6,66.2,29.76,ENE,68,0.9,0.9,95,0.08,,---,0.25,VWS V14.01,2013-01-19 21:49:00,
2013-01-20 08:54:00,67.6,66.2,29.76,ENE,68,0.9,0.9,95,0.08,,---,0.25,VWS V14.01,2013-01-19 21:54:00,
2013-01-20 08:59:00,67.8,66.6,29.76,East,90,0.0,0.0,96,0.08,,---,0.25,VWS V14.01,2013-01-19 21:59:00,
2013-01-20 09:04:00,67.8,66.6,29.76,East,90,0.0,0.0,96,0.08,,---,0.25,VWS V14.01,2013-01-19 22:04:00,
2013-01-20 09:09:00,67.6,66.5,29.76,ENE,68,0.0,0.9,96,0.04,,---,0.25,VWS V14.01,2013-01-19 22:09:00,
2013-01-20 09:14:00,67.8,66.6,29.76,ENE,68,0.9,0.9,96,0.04,,---,0.25,VWS V14.01,2013-01-19 22:14:00,
2013-01-20 09:19:00,67.8,66.6,29.76,East,90,0.0,0.0,96,0.04,,---,0.25,VWS V14.01,2013-01-19 22:19:00,
2013-01-20 09:24:00,67.8,66.6,29.76,East,90,0.0,0.0,96,0.04,,---,0.25,VWS V14.01,2013-01-19 22:24:00,
2013-01-20 09:29:00,68.0,66.5,29.76,ESE,112,0.0,0.0,95,0.04,,---,0.25,VWS V14.01,2013-01-19 22:29:00,
2013-01-20 09:34:00,68.0,66.5,29.76,East,90,0.0,1.3,95,0.00,,---,0.25,VWS V14.01,2013-01-19 22:34:00,
2013-01-20 09:39:00,68.2,66.7,29.76,ESE,112,0.0,0.0,95,0.00,,---,0.25,VWS V14.01,2013-01-19 22:39:00,
2013-01-20 09:44:00,68.2,66.4,29.76,SSW,202,0.0,0.0,94,0.04,,---,0.29,VWS V14.01,2013-01-19 22:44:00,
2013-01-20 09:50:00,68.4,66.6,29.76,East,90,0.0,0.0,94,0.04,,---,0.29,VWS V14.01,2013-01-19 22:50:00,
2013-01-20 09:55:00,68.5,66.8,29.76,SE,135,0.0,0.0,94,0.04,,---,0.29,VWS V14.01,2013-01-19 22:55:00,
2013-01-20 10:00:00,68.5,66.8,29.76,ESE,112,0.0,1.3,94,0.04,,---,0.29,VWS V14.01,2013-01-19 23:00:00,
2013-01-20 10:05:00,68.7,66.9,29.76,ESE,112,0.0,0.0,94,0.04,,---,0.29,VWS V14.01,2013-01-19 23:05:00,
2013-01-20 10:10:00,69.1,67.3,29.76,ESE,112,0.9,0.9,94,0.04,,---,0.29,VWS V14.01,2013-01-19 23:10:00,
2013-01-20 10:15:00,69.1,67.3,29.76,ESE,112,0.9,2.2,94,0.04,,---,0.29,VWS V14.01,2013-01-19 23:15:00,
2013-01-20 10:20:00,69.1,67.3,29.76,East,90,0.0,0.0,94,0.04,,---,0.29,VWS V14.01,2013-01-19 23:20:00,
2013-01-20 10:25:00,69.3,67.5,29.76,NNE,22,0.0,0.0,94,0.04,,---,0.29,VWS V14.01,2013-01-19 23:25:00,
2013-01-20 10:31:00,69.3,67.5,29.76,NE,45,0.0,0.0,94,0.04,,---,0.29,VWS V14.01,2013-01-19 23:31:00,
2013-01-20 10:36:00,69.3,67.5,29.76,NW,315,0.0,0.0,94,0.04,,---,0.29,VWS V14.01,2013-01-19 23:36:00,
2013-01-20 10:41:00,69.3,67.2,29.76,ESE,112,0.0,0.0,93,0.04,,---,0.29,VWS V14.01,2013-01-19 23:41:00,
2013-01-20 10:46:00,69.3,67.2,29.76,South,180,0.0,0.0,93,0.00,,---,0.29,VWS V14.01,2013-01-19 23:46:00,
2013-01-20 10:51:00,69.3,67.2,29.76,ESE,112,0.0,0.0,93,0.04,,---,0.33,VWS V14.01,2013-01-19 23:51:00,
2013-01-20 10:56:00,69.1,67.3,29.76,ESE,112,1.6,1.6,94,0.04,,---,0.33,VWS V14.01,2013-01-19 23:56:00,
2013-01-20 11:01:00,69.1,67.3,29.76,SE,135,0.0,0.0,94,0.04,,---,0.33,VWS V14.01,2013-01-20 00:01:00,
2013-01-20 11:06:00,69.1,67.3,29.76,SE,135,1.3,1.3,94,0.04,,---,0.33,VWS V14.01,2013-01-20 00:06:00,
2013-01-20 11:12:00,69.1,67.0,29.76,SE,135,0.9,2.7,93,0.04,,---,0.33,VWS V14.01,2013-01-20 00:12:00,
2013-01-20 11:17:00,69.3,67.2,29.76,SE,135,0.9,0.9,93,0.04,,---,0.33,VWS V14.01,2013-01-20 00:17:00,
2013-01-20 11:22:00,69.3,67.2,29.76,ESE,112,1.1,1.1,93,0.08,,---,0.37,VWS V14.01,2013-01-20 00:22:00,
2013-01-20 11:27:00,69.3,67.2,29.76,ESE,112,0.0,0.0,93,0.08,,---,0.37,VWS V14.01,2013-01-20 00:27:00,
2013-01-20 11:32:00,69.3,67.2,29.76,ESE,112,0.0,0.0,93,0.08,,---,0.37,VWS V14.01,2013-01-20 00:32:00,
2013-01-20 11:37:00,69.3,67.2,29.76,SE,135,0.0,0.0,93,0.08,,---,0.37,VWS V14.01,2013-01-20 00:37:00,
2013-01-20 11:42:00,69.3,67.2,29.76,ESE,112,0.0,0.0,93,0.12,,---,0.41,VWS V14.01,2013-01-20 00:42:00,
2013-01-20 11:47:00,69.4,67.3,29.76,SE,135,0.0,0.0,93,0.12,,---,0.41,VWS V14.01,2013-01-20 00:47:00,
2013-01-20 11:52:00,69.4,67.3,29.76,SE,135,1.3,1.3,93,0.13,,---,0.46,VWS V14.01,2013-01-20 00:52:00,
2013-01-20 11:58:00,69.3,66.8,29.76,SE,135,0.0,0.0,92,0.13,,---,0.46,VWS V14.01,2013-01-20 00:58:00,
2013-01-20 12:03:00,69.4,67.0,29.76,SE,135,1.3,1.3,92,0.17,,---,0.50,VWS V14.01,2013-01-20 01:03:00,
2013-01-20 12:08:00,69.4,67.0,29.76,SSW,202,1.6,1.6,92,0.17,,---,0.50,VWS V14.01,2013-01-20 01:08:00,
2013-01-20 12:13:00,69.4,67.0,29.76,SW,225,0.9,0.9,92,0.21,,---,0.54,VWS V14.01,2013-01-20 01:13:00,
2013-01-20 12:18:00,69.4,67.0,29.76,SW,225,2.0,2.0,92,0.25,,---,0.58,VWS V14.01,2013-01-20 01:18:00,
2013-01-20 12:23:00,69.4,67.0,29.76,SW,225,1.3,1.3,92,0.21,,---,0.58,VWS V14.01,2013-01-20 01:23:00,
2013-01-20 12:28:00,69.6,67.2,29.76,SW,225,0.0,1.3,92,0.25,,---,0.62,VWS V14.01,2013-01-20 01:28:00,
2013-01-20 12:33:00,69.6,67.2,29.76,SW,225,0.0,0.0,92,0.25,,---,0.62,VWS V14.01,2013-01-20 01:33:00,
2013-01-20 12:38:00,69.8,67.1,29.76,West,270,0.0,0.0,91,0.25,,---,0.62,VWS V14.01,2013-01-20 01:38:00,
2013-01-20 12:43:00,69.8,67.1,29.76,South,180,0.0,0.9,91,0.25,,---,0.66,VWS V14.01,2013-01-20 01:43:00,
2013-01-20 12:48:00,69.8,67.1,29.76,SSW,202,0.0,1.1,91,0.25,,---,0.66,VWS V14.01,2013-01-20 01:48:00,
2013-01-20 12:53:00,70.0,67.2,29.76,SW,225,2.5,2.5,91,0.25,,---,0.71,VWS V14.01,2013-01-20 01:53:00,
2013-01-20 12:58:00,70.0,67.2,29.74,West,270,1.1,1.3,91,0.25,,---,0.71,VWS V14.01,2013-01-20 01:58:00,
2013-01-20 13:03:00,70.2,67.4,29.74,West,270,1.1,1.3,91,0.21,,---,0.71,VWS V14.01,2013-01-20 02:03:00,
2013-01-20 13:08:00,70.2,67.4,29.74,NW,315,1.1,1.1,91,0.25,,---,0.75,VWS V14.01,2013-01-20 02:08:00,
2013-01-20 13:13:00,70.3,67.6,29.74,West,270,0.0,0.0,91,0.25,,---,0.79,VWS V14.01,2013-01-20 02:13:00,
2013-01-20 13:18:00,70.3,67.6,29.74,SW,225,0.0,0.0,91,0.21,,---,0.79,VWS V14.01,2013-01-20 02:18:00,
2013-01-20 13:23:00,70.3,67.6,29.74,SW,225,0.9,0.9,91,0.25,,---,0.83,VWS V14.01,2013-01-20 02:23:00,
2013-01-20 13:28:00,70.5,67.8,29.74,SW,225,0.0,0.0,91,0.21,,---,0.83,VWS V14.01,2013-01-20 02:28:00,
2013-01-20 13:33:00,70.5,67.8,29.74,SSW,202,1.1,1.3,91,0.21,,---,0.83,VWS V14.01,2013-01-20 02:33:00,
2013-01-20 13:38:00,70.3,67.6,29.74,SW,225,0.0,0.0,91,0.21,,---,0.83,VWS V14.01,2013-01-20 02:38:00,
2013-01-20 13:43:00,70.3,67.6,29.74,South,180,0.0,0.0,91,0.21,,---,0.87,VWS V14.01,2013-01-20 02:43:00,
2013-01-20 13:48:00,70.3,67.6,29.74,South,180,1.1,1.1,91,0.21,,---,0.87,VWS V14.01,2013-01-20 02:48:00,
2013-01-20 13:54:00,70.3,67.6,29.74,SSW,202,0.0,0.0,91,0.16,,---,0.87,VWS V14.01,2013-01-20 02:54:00,
2013-01-20 13:59:00,70.3,67.6,29.74,South,180,0.0,0.9,91,0.16,,---,0.87,VWS V14.01,2013-01-20 02:59:00,
2013-01-20 14:04:00,70.3,67.6,29.74,South,180,0.0,0.0,91,0.16,,---,0.87,VWS V14.01,2013-01-20 03:04:00,
2013-01-20 14:09:00,70.5,67.8,29.74,SSE,158,1.3,1.3,91,0.12,,---,0.87,VWS V14.01,2013-01-20 03:09:00,
2013-01-20 14:14:00,70.5,67.8,29.74,South,180,0.0,0.0,91,0.08,,---,0.87,VWS V14.01,2013-01-20 03:14:00,
2013-01-20 14:19:00,70.5,67.8,29.74,SW,225,0.0,1.6,91,0.08,,---,0.87,VWS V14.01,2013-01-20 03:19:00,
2013-01-20 14:24:00,70.7,67.9,29.74,WSW,248,0.9,1.3,91,0.08,,---,0.87,VWS V14.01,2013-01-20 03:24:00,
2013-01-20 14:29:00,70.7,67.9,29.74,SW,225,0.0,0.0,91,0.04,,---,0.87,VWS V14.01,2013-01-20 03:29:00,
2013-01-20 14:34:00,70.5,67.8,29.74,SSW,202,0.0,0.0,91,0.04,,---,0.87,VWS V14.01,2013-01-20 03:34:00,
2013-01-20 14:39:00,70.5,67.8,29.74,SE,135,0.0,1.3,91,0.04,,---,0.87,VWS V14.01,2013-01-20 03:39:00,
2013-01-20 14:44:00,70.5,67.8,29.74,SE,135,0.0,0.0,91,0.00,,---,0.87,VWS V14.01,2013-01-20 03:44:00,
2013-01-20 14:49:00,70.5,67.8,29.74,SE,135,0.0,0.0,91,0.00,,---,0.87,VWS V14.01,2013-01-20 03:49:00,
2013-01-20 14:54:00,70.3,67.6,29.74,ESE,112,0.0,0.0,91,0.04,,---,0.91,VWS V14.01,2013-01-20 03:54:00,
2013-01-20 14:59:00,70.3,67.6,29.71,SE,135,0.9,0.9,91,0.04,,---,0.91,VWS V14.01,2013-01-20 03:59:00,
2013-01-20 15:04:00,70.3,67.6,29.71,ESE,112,0.0,0.9,91,0.04,,---,0.91,VWS V14.01,2013-01-20 04:04:00,
2013-01-20 15:09:00,70.5,67.8,29.71,SE,135,0.0,0.0,91,0.04,,---,0.91,VWS V14.01,2013-01-20 04:09:00,
2013-01-20 15:14:00,70.3,67.6,29.71,ESE,112,2.0,2.0,91,0.04,,---,0.91,VWS V14.01,2013-01-20 04:14:00,
2013-01-20 15:19:00,70.3,67.6,29.71,SE,135,1.3,1.3,91,0.04,,---,0.91,VWS V14.01,2013-01-20 04:19:00,
2013-01-20 15:24:00,70.5,67.8,29.71,SE,135,0.0,0.0,91,0.04,,---,0.91,VWS V14.01,2013-01-20 04:24:00,
2013-01-20 15:29:00,70.5,67.8,29.71,ESE,112,1.6,1.6,91,0.08,,---,0.95,VWS V14.01,2013-01-20 04:29:00,
2013-01-20 15:34:00,70.5,68.1,29.71,SE,135,0.0,0.0,92,0.08,,---,0.95,VWS V14.01,2013-01-20 04:34:00,
2013-01-20 15:39:00,70.5,68.1,29.71,South,180,0.9,0.9,92,0.08,,---,0.95,VWS V14.01,2013-01-20 04:39:00,
2013-01-20 15:44:00,70.7,68.3,29.71,SE,135,1.6,1.6,92,0.08,,---,0.95,VWS V14.01,2013-01-20 04:44:00,
2013-01-20 15:49:00,70.7,68.3,29.71,SE,135,0.0,0.0,92,0.08,,---,0.95,VWS V14.01,2013-01-20 04:49:00,
2013-01-20 15:54:00,70.7,68.3,29.71,SE,135,1.3,1.3,92,0.04,,---,0.95,VWS V14.01,2013-01-20 04:54:00,
2013-01-20 16:00:00,70.7,68.3,29.71,SE,135,0.0,0.0,92,0.04,,---,0.95,VWS V14.01,2013-01-20 05:00:00,
2013-01-20 16:05:00,70.5,68.1,29.71,SE,135,0.0,0.0,92,0.04,,---,0.95,VWS V14.01,2013-01-20 05:05:00,
2013-01-20 16:10:00,70.3,67.9,29.71,SSE,158,0.9,3.8,92,0.04,,---,0.95,VWS V14.01,2013-01-20 05:10:00,
2013-01-20 16:15:00,70.7,68.3,29.71,SSE,158,2.0,2.0,92,0.04,,---,0.95,VWS V14.01,2013-01-20 05:15:00,
2013-01-20 16:20:00,70.7,68.3,29.71,ESE,112,3.6,3.6,92,0.04,,---,0.95,VWS V14.01,2013-01-20 05:20:00,
2013-01-20 16:25:00,70.7,68.3,29.71,SE,135,1.1,2.5,92,0.04,,---,0.95,VWS V14.01,2013-01-20 05:25:00,
2013-01-20 16:30:00,70.5,68.1,29.71,SSW,202,0.0,1.1,92,0.00,,---,0.95,VWS V14.01,2013-01-20 05:30:00,
2013-01-20 16:35:00,70.7,68.3,29.71,SE,135,0.0,0.0,92,0.00,,---,0.95,VWS V14.01,2013-01-20 05:35:00,
2013-01-20 16:40:00,70.7,68.3,29.71,WSW,248,2.0,3.6,92,0.00,,---,0.95,VWS V14.01,2013-01-20 05:40:00,
2013-01-20 16:45:00,70.7,67.9,29.71,SSE,158,0.0,0.0,91,0.00,,---,0.95,VWS V14.01,2013-01-20 05:45:00,
2013-01-20 16:50:00,70.5,67.8,29.71,South,180,1.3,1.6,91,0.00,,---,0.95,VWS V14.01,2013-01-20 05:50:00,
2013-01-20 16:55:00,70.5,67.8,29.71,SSE,158,0.0,0.0,91,0.00,,---,0.95,VWS V14.01,2013-01-20 05:55:00,
2013-01-20 17:00:00,70.5,67.8,29.71,ESE,112,0.0,0.0,91,0.00,,---,0.95,VWS V14.01,2013-01-20 06:00:00,
2013-01-20 17:05:00,70.5,67.8,29.71,SSE,158,0.0,0.0,91,0.00,,---,0.95,VWS V14.01,2013-01-20 06:05:00,
2013-01-20 17:10:00,70.5,67.8,29.71,ESE,112,1.3,1.3,91,0.00,,---,0.95,VWS V14.01,2013-01-20 06:10:00,
2013-01-20 17:15:00,70.3,67.6,29.71,SE,135,0.0,0.0,91,0.00,,---,0.95,VWS V14.01,2013-01-20 06:15:00,
2013-01-20 17:20:00,70.3,67.6,29.71,SE,135,0.0,0.0,91,0.00,,---,0.95,VWS V14.01,2013-01-20 06:20:00,
2013-01-20 17:25:00,70.2,67.7,29.71,SSE,158,0.9,0.9,92,0.00,,---,0.95,VWS V14.01,2013-01-20 06:25:00,
2013-01-20 17:30:00,70.2,67.4,29.68,SSE,158,0.0,0.0,91,0.00,,---,0.95,VWS V14.01,2013-01-20 06:30:00,
2013-01-20 17:35:00,70.2,67.4,29.68,South,180,0.0,0.0,91,0.00,,---,0.95,VWS V14.01,2013-01-20 06:35:00,
2013-01-20 17:40:00,70.2,67.4,29.68,SE,135,0.0,0.0,91,0.00,,---,0.95,VWS V14.01,2013-01-20 06:40:00,
2013-01-20 17:45:00,70.2,67.4,29.71,SSE,158,0.0,0.0,91,0.00,,---,0.95,VWS V14.01,2013-01-20 06:45:00,
2013-01-20 17:50:00,70.2,67.4,29.71,SSE,158,0.0,0.0,91,0.00,,---,0.95,VWS V14.01,2013-01-20 06:50:00,
2013-01-20 17:55:00,70.2,67.4,29.71,SE,135,0.9,0.9,91,0.00,,---,0.95,VWS V14.01,2013-01-20 06:55:00,
2013-01-20 18:00:00,70.2,67.4,29.71,East,90,0.0,0.0,91,0.00,,---,0.95,VWS V14.01,2013-01-20 07:00:00,
2013-01-20 18:05:00,70.2,67.4,29.71,East,90,0.0,0.0,91,0.00,,---,0.95,VWS V14.01,2013-01-20 07:05:00,
2013-01-20 18:10:00,70.2,67.4,29.71,East,90,0.0,0.0,91,0.00,,---,0.95,VWS V14.01,2013-01-20 07:10:00,
2013-01-20 18:15:00,70.2,67.4,29.71,ESE,112,0.0,0.0,91,0.00,,---,0.95,VWS V14.01,2013-01-20 07:15:00,
2013-01-20 18:20:00,70.2,67.4,29.71,ESE,112,0.0,0.0,91,0.00,,---,0.95,VWS V14.01,2013-01-20 07:20:00,
2013-01-20 18:25:00,70.0,67.6,29.71,East,90,0.0,0.0,92,0.00,,---,0.95,VWS V14.01,2013-01-20 07:25:00,
2013-01-20 18:30:00,70.2,67.7,29.71,ESE,112,0.0,0.0,92,0.00,,---,0.95,VWS V14.01,2013-01-20 07:30:00,
2013-01-20 18:35:00,70.2,67.7,29.71,SE,135,0.0,0.0,92,0.00,,---,0.95,VWS V14.01,2013-01-20 07:35:00,
2013-01-20 18:40:00,70.2,67.7,29.71,SE,135,0.0,0.0,92,0.00,,---,0.95,VWS V14.01,2013-01-20 07:40:00,
2013-01-20 18:45:00,70.0,67.9,29.71,ESE,112,0.0,0.0,93,0.00,,---,0.95,VWS V14.01,2013-01-20 07:45:00,
2013-01-20 18:50:00,70.0,67.9,29.71,ESE,112,0.0,0.0,93,0.00,,---,0.95,VWS V14.01,2013-01-20 07:50:00,
2013-01-20 18:55:00,70.0,67.9,29.71,ESE,112,0.0,0.0,93,0.00,,---,0.95,VWS V14.01,2013-01-20 07:55:00,
2013-01-20 19:00:00,70.0,67.9,29.71,ESE,112,0.0,0.0,93,0.00,,---,0.95,VWS V14.01,2013-01-20 08:00:00,
2013-01-20 19:05:00,70.0,67.9,29.71,East,90,0.0,0.0,93,0.00,,---,0.95,VWS V14.01,2013-01-20 08:05:00,
2013-01-20 19:10:00,70.0,67.9,29.71,ESE,112,0.0,0.0,93,0.00,,---,0.95,VWS V14.01,2013-01-20 08:10:00,
2013-01-20 19:15:00,70.0,67.9,29.71,ESE,112,0.0,0.0,93,0.00,,---,0.95,VWS V14.01,2013-01-20 08:15:00,
2013-01-20 19:20:00,70.0,67.9,29.71,ESE,112,0.0,0.0,93,0.00,,---,0.95,VWS V14.01,2013-01-20 08:20:00,
2013-01-20 19:25:00,70.0,67.9,29.71,ESE,112,0.0,0.0,93,0.00,,---,0.95,VWS V14.01,2013-01-20 08:25:00,
2013-01-20 19:30:00,70.0,67.9,29.71,ESE,112,0.0,0.0,93,0.00,,---,0.95,VWS V14.01,2013-01-20 08:30:00,
2013-01-20 19:35:00,70.0,67.9,29.71,ESE,112,0.0,0.0,93,0.00,,---,0.95,VWS V14.01,2013-01-20 08:35:00,
2013-01-20 19:40:00,70.0,67.6,29.71,ESE,112,0.0,0.0,92,0.00,,---,0.95,VWS V14.01,2013-01-20 08:40:00,
2013-01-20 19:45:00,69.8,67.4,29.71,ESE,112,0.0,0.0,92,0.00,,---,0.95,VWS V14.01,2013-01-20 08:45:00,
2013-01-20 19:50:00,69.8,67.4,29.71,ESE,112,0.0,0.0,92,0.00,,---,0.95,VWS V14.01,2013-01-20 08:50:00,
2013-01-20 19:55:00,69.8,67.4,29.71,ESE,112,0.0,0.0,92,0.00,,---,0.95,VWS V14.01,2013-01-20 08:55:00,
2013-01-20 20:00:00,69.8,67.4,29.74,ESE,112,0.0,0.0,92,0.00,,---,0.95,VWS V14.01,2013-01-20 09:00:00,
2013-01-20 20:05:00,69.8,67.4,29.74,East,90,1.1,1.1,92,0.00,,---,0.95,VWS V14.01,2013-01-20 09:05:00,
2013-01-20 20:10:00,69.6,67.5,29.74,West,270,0.0,0.0,93,0.04,,---,0.99,VWS V14.01,2013-01-20 09:10:00,
2013-01-20 20:15:00,69.4,67.3,29.74,NNE,22,0.0,1.3,93,0.04,,---,0.99,VWS V14.01,2013-01-20 09:15:00,
2013-01-20 20:20:00,69.4,67.3,29.74,NW,315,0.9,0.9,93,0.04,,---,0.99,VWS V14.01,2013-01-20 09:20:00,
2013-01-20 20:25:00,69.4,67.3,29.74,West,270,0.0,2.0,93,0.04,,---,0.99,VWS V14.01,2013-01-20 09:25:00,
2013-01-20 20:30:00,69.4,67.3,29.74,WNW,292,0.0,0.0,93,0.04,,---,0.99,VWS V14.01,2013-01-20 09:30:00,
2013-01-20 20:35:00,69.3,66.8,29.74,WNW,292,0.0,0.0,92,0.04,,---,0.99,VWS V14.01,2013-01-20 09:35:00,
2013-01-20 20:40:00,69.3,66.8,29.74,WNW,292,0.0,0.0,92,0.04,,---,0.99,VWS V14.01,2013-01-20 09:40:00,
2013-01-20 20:45:00,69.3,66.8,29.74,WSW,248,0.0,0.0,92,0.04,,---,0.99,VWS V14.01,2013-01-20 09:45:00,
2013-01-20 20:50:00,69.3,66.8,29.74,South,180,0.0,0.0,92,0.04,,---,0.99,VWS V14.01,2013-01-20 09:50:00,
2013-01-20 20:55:00,69.1,66.7,29.74,South,180,0.0,0.0,92,0.04,,---,0.99,VWS V14.01,2013-01-20 09:55:00,
2013-01-20 21:00:00,69.1,66.7,29.74,South,180,0.0,0.0,92,0.04,,---,0.99,VWS V14.01,2013-01-20 10:00:00,
2013-01-20 21:05:00,69.1,66.7,29.74,SW,225,0.0,0.0,92,0.04,,---,0.99,VWS V14.01,2013-01-20 10:05:00,
2013-01-20 21:10:00,69.1,66.7,29.74,SW,225,0.0,0.0,92,0.00,,---,0.99,VWS V14.01,2013-01-20 10:10:00,
2013-01-20 21:15:00,69.1,66.7,29.74,SW,225,0.0,0.0,92,0.00,,---,0.99,VWS V14.01,2013-01-20 10:15:00,
2013-01-20 21:20:00,69.1,66.7,29.74,SW,225,0.0,0.0,92,0.00,,---,0.99,VWS V14.01,2013-01-20 10:20:00,
2013-01-20 21:25:00,69.1,66.7,29.74,WSW,248,1.1,1.1,92,0.00,,---,0.99,VWS V14.01,2013-01-20 10:25:00,
2013-01-20 21:30:00,69.3,66.8,29.74,West,270,0.0,0.0,92,0.00,,---,0.99,VWS V14.01,2013-01-20 10:30:00,
2013-01-20 21:35:00,69.3,66.8,29.74,West,270,0.0,0.0,92,0.00,,---,0.99,VWS V14.01,2013-01-20 10:35:00,
2013-01-20 21:40:00,69.3,66.8,29.74,West,270,0.0,0.0,92,0.00,,---,0.99,VWS V14.01,2013-01-20 10:40:00,
2013-01-20 21:45:00,69.3,66.8,29.74,West,270,0.0,0.0,92,0.00,,---,0.99,VWS V14.01,2013-01-20 10:45:00,
2013-01-20 21:50:00,69.3,66.8,29.74,West,270,0.0,0.0,92,0.00,,---,0.99,VWS V14.01,2013-01-20 10:50:00,
2013-01-20 21:55:00,69.3,66.8,29.74,West,270,0.0,0.0,92,0.00,,---,0.99,VWS V14.01,2013-01-20 10:55:00,
2013-01-20 22:00:00,69.3,67.2,29.74,West,270,0.0,0.0,93,0.00,,---,0.99,VWS V14.01,2013-01-20 11:00:00,
2013-01-20 22:05:00,69.3,67.2,29.74,West,270,0.0,0.0,93,0.00,,---,0.99,VWS V14.01,2013-01-20 11:05:00,
2013-01-20 22:10:00,69.3,67.2,29.74,West,270,0.0,0.0,93,0.00,,---,0.99,VWS V14.01,2013-01-20 11:10:00,
2013-01-20 22:15:00,69.3,67.2,29.74,West,270,0.0,0.0,93,0.00,,---,0.99,VWS V14.01,2013-01-20 11:15:00,
2013-01-20 22:20:00,69.1,67.0,29.74,SW,225,0.0,0.0,93,0.00,,---,0.99,VWS V14.01,2013-01-20 11:20:00,
2013-01-20 22:25:00,69.3,67.2,29.74,SW,225,0.0,0.0,93,0.00,,---,0.99,VWS V14.01,2013-01-20 11:25:00,
2013-01-20 22:30:00,69.1,67.0,29.74,ENE,68,1.1,1.1,93,0.00,,---,0.99,VWS V14.01,2013-01-20 11:30:00,
2013-01-20 22:35:00,69.1,67.0,29.74,ENE,68,0.0,0.0,93,0.00,,---,0.99,VWS V14.01,2013-01-20 11:35:00,
2013-01-20 22:40:00,69.1,67.0,29.74,East,90,0.0,0.0,93,0.00,,---,0.99,VWS V14.01,2013-01-20 11:40:00,
2013-01-20 22:45:00,69.1,67.0,29.74,East,90,0.0,0.0,93,0.00,,---,0.99,VWS V14.01,2013-01-20 11:45:00,
2013-01-20 22:50:00,69.1,67.0,29.74,East,90,0.0,0.0,93,0.00,,---,0.99,VWS V14.01,2013-01-20 11:50:00,
2013-01-20 22:55:00,69.1,67.0,29.74,East,90,0.0,0.0,93,0.00,,---,0.99,VWS V14.01,2013-01-20 11:55:00,
2013-01-20 23:00:00,69.1,67.0,29.74,East,90,0.0,0.0,93,0.00,,---,0.99,VWS V14.01,2013-01-20 12:00:00,
2013-01-20 23:05:00,69.1,67.0,29.74,East,90,0.0,0.0,93,0.00,,---,0.99,VWS V14.01,2013-01-20 12:05:00,
2013-01-20 23:10:00,69.1,67.0,29.74,East,90,0.0,0.0,93,0.00,,---,0.99,VWS V14.01,2013-01-20 12:10:00,
2013-01-20 23:15:00,69.1,67.0,29.74,East,90,0.0,0.0,93,0.00,,---,0.99,VWS V14.01,2013-01-20 12:15:00,
2013-01-20 23:20:00,69.1,67.0,29.74,East,90,0.0,0.0,93,0.00,,---,0.99,VWS V14.01,2013-01-20 12:20:00,
2013-01-20 23:25:00,69.1,67.0,29.74,East,90,0.0,0.0,93,0.00,,---,0.99,VWS V14.01,2013-01-20 12:25:00,
2013-01-20 23:30:00,69.1,67.0,29.74,East,90,0.0,0.0,93,0.00,,---,0.99,VWS V14.01,2013-01-20 12:30:00,
2013-01-20 23:35:00,69.3,67.2,29.74,East,90,0.0,0.0,93,0.00,,---,0.99,VWS V14.01,2013-01-20 12:35:00,
2013-01-20 23:40:00,69.3,67.2,29.74,East,90,0.0,0.0,93,0.00,,---,0.99,VWS V14.01,2013-01-20 12:40:00,
2013-01-20 23:45:00,69.3,67.2,29.74,East,90,0.0,0.0,93,0.00,,---,0.99,VWS V14.01,2013-01-20 12:45:00,
2013-01-20 23:50:00,69.3,67.2,29.74,East,90,0.0,0.0,93,0.00,,---,0.99,VWS V14.01,2013-01-20 12:50:00,
2013-01-20 23:55:00,69.3,67.2,29.74,East,90,0.0,0.0,93,0.00,,---,0.99,VWS V14.01,2013-01-20 12:55:00,